createdAt,value
2023-01-19T00:00:41.775Z,95945.31
2023-01-19T00:03:27.335Z,95945.09
2023-01-19T00:06:12.876Z,95945.50
2023-01-19T00:08:58.677Z,95945.09
2023-01-19T00:11:44.011Z,95944.69
2023-01-19T00:14:29.214Z,95946.88
2023-01-19T00:17:17.053Z,95947.25
2023-01-19T00:20:03.947Z,95946.63
2023-01-19T00:22:50.971Z,95943.63
2023-01-19T00:25:42.363Z,95940.22
2023-01-19T00:28:28.162Z,95950.63
2023-01-19T00:31:14.155Z,95956.66
2023-01-19T00:34:00.122Z,95952.44
2023-01-19T00:36:45.866Z,95955.84
2023-01-19T00:39:31.341Z,95960.25
2023-01-19T00:42:35.433Z,95960.44
2023-01-19T00:45:23.532Z,95958.84
2023-01-19T00:48:10.747Z,95964.22
2023-01-19T00:50:56.077Z,95973.84
2023-01-19T00:53:41.510Z,95966.63
2023-01-19T00:56:27.216Z,95967.81
2023-01-19T00:59:13.230Z,95968.59
2023-01-19T01:01:58.867Z,95974.63
2023-01-19T01:04:44.460Z,95973.81
2023-01-19T01:07:30.797Z,95974.22
2023-01-19T01:10:19.903Z,95971.88
2023-01-19T01:13:21.082Z,95970.25
2023-01-19T01:16:09.964Z,95975.03
2023-01-19T01:18:55.612Z,95985.25
2023-01-19T01:21:41.186Z,95991.81
2023-01-19T01:24:26.786Z,95993.41
2023-01-19T01:27:12.266Z,95999.38
2023-01-19T01:29:57.727Z,96000.13
2023-01-19T01:32:43.777Z,96002.91
2023-01-19T01:35:29.524Z,96015.06
2023-01-19T01:38:15.607Z,96018.41
2023-01-19T01:41:01.471Z,96027.97
2023-01-19T01:43:58.263Z,96031.31
2023-01-19T01:46:43.930Z,96043.09
2023-01-19T01:49:30.400Z,96045.28
2023-01-19T01:52:19.569Z,96049.03
2023-01-19T01:55:07.220Z,96055.63
2023-01-19T01:57:58.896Z,96075.78
2023-01-19T02:01:02.899Z,96075.78
2023-01-19T02:03:48.175Z,96082.25
2023-01-19T02:06:34.572Z,96087.91
2023-01-19T02:09:39.416Z,96086.91
2023-01-19T02:12:43.790Z,96086.53
2023-01-19T02:15:29.170Z,96088.31
2023-01-19T02:18:17.769Z,96097.91
2023-01-19T02:21:15.039Z,96104.09
2023-01-19T02:24:03.014Z,96092.09
2023-01-19T02:26:49.327Z,96090.31
2023-01-19T02:29:35.404Z,96089.31
2023-01-19T02:32:20.860Z,96089.91
2023-01-19T02:35:06.856Z,96095.13
2023-01-19T02:37:53.944Z,96093.97
2023-01-19T02:40:42.537Z,96089.56
2023-01-19T02:43:30.020Z,96096.38
2023-01-19T02:46:18.259Z,96088.75
2023-01-19T02:49:03.867Z,96088.94
2023-01-19T02:51:49.278Z,96096.38
2023-01-19T02:55:04.648Z,96100.59
2023-01-19T02:58:15.581Z,96102.00
2023-01-19T03:01:32.639Z,96093.81
2023-01-19T03:04:34.027Z,96096.06
2023-01-19T03:07:25.390Z,96087.06
2023-01-19T03:10:16.599Z,96086.09
2023-01-19T03:13:27.526Z,96079.88
2023-01-19T03:16:29.523Z,96081.88
2023-01-19T03:19:23.120Z,96076.22
2023-01-19T03:22:15.298Z,96072.22
2023-01-19T03:25:02.722Z,96073.59
2023-01-19T03:27:51.509Z,96068.31
2023-01-19T03:30:40.781Z,96075.88
2023-01-19T03:33:37.307Z,96075.44
2023-01-19T03:36:32.040Z,96083.34
2023-01-19T03:39:25.491Z,96078.09
2023-01-19T03:42:16.986Z,96076.41
2023-01-19T03:45:03.288Z,96069.19
2023-01-19T03:47:49.414Z,96072.97
2023-01-19T03:50:34.649Z,96068.13
2023-01-19T03:53:21.635Z,96065.28
2023-01-19T03:56:17.231Z,96068.22
2023-01-19T03:59:02.765Z,96072.19
2023-01-19T04:01:48.926Z,96067.34
2023-01-19T04:04:35.554Z,96066.09
2023-01-19T04:07:22.830Z,96063.63
2023-01-19T04:10:12.663Z,96064.34
2023-01-19T04:12:59.553Z,96061.50
2023-01-19T04:15:45.305Z,96069.03
2023-01-19T04:18:34.886Z,96071.97
2023-01-19T04:21:22.988Z,96072.97
2023-01-19T04:24:10.197Z,96058.38
2023-01-19T04:26:55.883Z,96064.19
2023-01-19T04:29:41.490Z,96066.44
2023-01-19T04:32:26.779Z,96061.84
2023-01-19T04:35:12.005Z,96071.25
2023-01-19T04:37:57.450Z,96071.88
2023-01-19T04:40:43.300Z,96073.50
2023-01-19T04:43:29.572Z,96077.09
2023-01-19T04:46:15.147Z,96085.84
2023-01-19T04:49:00.715Z,96086.25
2023-01-19T04:51:46.233Z,96090.81
2023-01-19T04:54:34.730Z,96084.00
2023-01-19T04:57:20.483Z,96094.38
2023-01-19T05:00:09.402Z,96093.41
2023-01-19T05:02:54.940Z,96100.22
2023-01-19T05:05:40.558Z,96101.81
2023-01-19T05:08:26.255Z,96103.41
2023-01-19T05:11:11.633Z,96104.88
2023-01-19T05:13:57.001Z,96112.66
2023-01-19T05:16:42.532Z,96119.44
2023-01-19T05:19:27.808Z,96122.25
2023-01-19T05:22:14.021Z,96123.22
2023-01-19T05:24:59.762Z,96123.22
2023-01-19T05:27:45.409Z,96118.03
2023-01-19T05:30:31.136Z,96110.59
2023-01-19T05:33:19.433Z,96113.53
2023-01-19T05:36:05.035Z,96117.31
2023-01-19T05:38:50.789Z,96125.47
2023-01-19T05:41:36.242Z,96124.06
2023-01-19T05:44:22.272Z,96122.50
2023-01-19T05:47:07.805Z,96127.53
2023-01-19T05:49:55.347Z,96131.63
2023-01-19T05:52:40.863Z,96131.44
2023-01-19T05:55:28.569Z,96140.41
2023-01-19T05:58:14.070Z,96133.19
2023-01-19T06:01:04.974Z,96130.66
2023-01-19T06:03:50.348Z,96134.97
2023-01-19T06:06:35.671Z,96128.09
2023-01-19T06:09:21.032Z,96133.16
2023-01-19T06:12:06.759Z,96145.25
2023-01-19T06:14:52.841Z,96143.38
2023-01-19T06:17:39.119Z,96151.88
2023-01-19T06:20:24.674Z,96152.78
2023-01-19T06:23:10.646Z,96154.28
2023-01-19T06:25:56.113Z,96151.06
2023-01-19T06:28:41.457Z,96154.00
2023-01-19T06:31:26.945Z,96158.56
2023-01-19T06:34:12.329Z,96166.06
2023-01-19T06:36:58.228Z,96167.41
2023-01-19T06:39:47.784Z,96179.94
2023-01-19T06:42:33.305Z,96187.25
2023-01-19T06:45:18.757Z,96189.22
2023-01-19T06:48:04.317Z,96194.75
2023-01-19T06:50:50.095Z,96203.69
2023-01-19T06:53:35.675Z,96208.44
2023-01-19T06:56:21.032Z,96208.75
2023-01-19T06:59:06.942Z,96217.88
2023-01-19T07:01:52.430Z,96217.22
2023-01-19T07:04:38.043Z,96218.22
2023-01-19T07:07:23.475Z,96224.72
2023-01-19T07:10:11.820Z,96231.22
2023-01-19T07:12:58.140Z,96241.97
2023-01-19T07:15:44.153Z,96237.91
2023-01-19T07:18:29.603Z,96237.91
2023-01-19T07:21:15.451Z,96238.72
2023-01-19T07:24:03.489Z,96235.94
2023-01-19T07:26:49.633Z,96235.50
2023-01-19T07:29:35.091Z,96246.19
2023-01-19T07:32:20.614Z,96245.41
2023-01-19T07:35:06.063Z,96248.97
2023-01-19T07:37:51.804Z,96249.78
2023-01-19T07:40:37.812Z,96242.97
2023-01-19T07:43:23.109Z,96252.19
2023-01-19T07:46:08.686Z,96253.81
2023-01-19T07:48:54.761Z,96262.22
2023-01-19T07:51:40.504Z,96263.50
2023-01-19T07:54:26.196Z,96263.34
2023-01-19T07:57:11.728Z,96263.63
2023-01-19T07:59:58.048Z,96267.50
2023-01-19T08:02:44.092Z,96275.56
2023-01-19T08:05:32.595Z,96274.28
2023-01-19T08:08:19.592Z,96271.78
2023-01-19T08:11:05.263Z,96270.28
2023-01-19T08:13:51.095Z,96280.63
2023-01-19T08:16:38.311Z,96279.13
2023-01-19T08:19:24.153Z,96282.47
2023-01-19T08:22:09.684Z,96283.75
2023-01-19T08:24:55.189Z,96282.06
2023-01-19T08:27:40.368Z,96284.78
2023-01-19T08:30:26.960Z,96292.69
2023-01-19T08:33:14.032Z,96294.59
2023-01-19T08:36:00.812Z,96294.69
2023-01-19T08:38:47.586Z,96301.78
2023-01-19T08:41:33.128Z,96304.66
2023-01-19T08:44:18.773Z,96306.53
2023-01-19T08:47:05.053Z,96314.44
2023-01-19T08:49:50.162Z,96317.31
2023-01-19T08:52:35.734Z,96320.03
2023-01-19T08:55:21.121Z,96309.72
2023-01-19T08:58:08.887Z,96325.44
2023-01-19T09:00:54.857Z,96318.69
2023-01-19T09:03:40.803Z,96321.56
2023-01-19T09:06:26.175Z,96318.09
2023-01-19T09:09:11.805Z,96322.75
2023-01-19T09:11:57.134Z,96322.03
2023-01-19T09:14:42.476Z,96325.53
2023-01-19T09:17:27.979Z,96325.63
2023-01-19T09:20:14.052Z,96321.47
2023-01-19T09:22:59.476Z,96332.44
2023-01-19T09:25:46.496Z,96320.31
2023-01-19T09:28:31.884Z,96324.78
2023-01-19T09:31:17.707Z,96320.72
2023-01-19T09:34:03.049Z,96325.84
2023-01-19T09:36:49.173Z,96333.50
2023-01-19T09:39:34.627Z,96328.00
2023-01-19T09:42:47.802Z,96343.19
2023-01-19T09:45:39.630Z,96336.78
2023-01-19T09:48:44.037Z,96337.03
2023-01-19T09:51:35.359Z,96338.09
2023-01-19T09:54:29.262Z,96333.56
2023-01-19T09:57:14.853Z,96329.59
2023-01-19T10:00:00.711Z,96329.22
2023-01-19T10:03:09.790Z,96323.38
2023-01-19T10:06:01.926Z,96337.41
2023-01-19T10:09:04.162Z,96331.56
2023-01-19T10:11:57.958Z,96326.09
2023-01-19T10:15:11.518Z,96329.91
2023-01-19T10:18:06.664Z,96329.47
2023-01-19T10:21:04.697Z,96337.81
2023-01-19T10:24:14.430Z,96330.75
2023-01-19T10:26:59.698Z,96341.56
2023-01-19T10:29:46.312Z,96350.91
2023-01-19T10:32:35.941Z,96353.16
2023-01-19T10:35:26.279Z,96355.38
2023-01-19T10:38:15.170Z,96355.47
2023-01-19T10:41:28.563Z,96354.53
2023-01-19T10:44:26.625Z,96356.63
2023-01-19T10:47:18.251Z,96356.91
2023-01-19T10:50:25.349Z,96354.16
2023-01-19T10:53:22.446Z,96341.00
2023-01-19T10:56:23.628Z,96337.84
2023-01-19T10:59:32.235Z,96342.66
2023-01-19T11:02:26.732Z,96341.00
2023-01-19T11:05:30.642Z,96345.78
2023-01-19T11:08:29.828Z,96342.38
2023-01-19T11:11:15.357Z,96345.72
2023-01-19T11:14:10.173Z,96350.31
2023-01-19T11:16:57.895Z,96346.53
2023-01-19T11:19:43.896Z,96341.31
2023-01-19T11:22:33.961Z,96334.69
2023-01-19T11:25:27.366Z,96341.66
2023-01-19T11:28:22.645Z,96327.84
2023-01-19T11:31:11.028Z,96336.66
2023-01-19T11:34:02.806Z,96329.66
2023-01-19T11:37:14.581Z,96331.63
2023-01-19T11:40:02.920Z,96333.84
2023-01-19T11:42:48.610Z,96333.06
2023-01-19T11:45:35.213Z,96332.25
2023-01-19T11:48:45.165Z,96333.81
2023-01-19T11:51:51.302Z,96328.03
2023-01-19T11:54:46.028Z,96330.66
2023-01-19T11:57:31.387Z,96322.81
2023-01-19T12:00:40.124Z,96317.19
2023-01-19T12:03:31.701Z,96316.19
2023-01-19T12:06:23.028Z,96317.41
2023-01-19T12:09:15.297Z,96306.44
2023-01-19T12:12:04.084Z,96306.13
2023-01-19T12:15:14.277Z,96301.94
2023-01-19T12:18:02.505Z,96304.59
2023-01-19T12:20:52.252Z,96313.28
2023-01-19T12:23:58.144Z,96314.91
2023-01-19T12:26:58.804Z,96318.72
2023-01-19T12:29:46.309Z,96309.09
2023-01-19T12:32:34.394Z,96317.09
2023-01-19T12:36:00.742Z,96304.50
2023-01-19T12:38:54.817Z,96311.13
2023-01-19T12:41:41.759Z,96311.13
2023-01-19T12:44:30.595Z,96313.50
2023-01-19T12:47:15.799Z,96307.25
2023-01-19T12:50:07.523Z,96304.84
2023-01-19T12:52:59.381Z,96304.63
2023-01-19T12:55:47.432Z,96300.03
2023-01-19T12:58:34.561Z,96299.47
2023-01-19T13:01:21.885Z,96303.31
2023-01-19T13:04:27.265Z,96303.13
2023-01-19T13:07:17.957Z,96303.31
2023-01-19T13:10:41.723Z,96302.94
2023-01-19T13:13:42.254Z,96302.31
2023-01-19T13:16:29.192Z,96298.09
2023-01-19T13:19:18.478Z,96290.47
2023-01-19T13:22:46.042Z,96300.09
2023-01-19T13:25:35.531Z,96306.31
2023-01-19T13:28:31.016Z,96303.88
2023-01-19T13:31:20.329Z,96307.94
2023-01-19T13:34:13.818Z,96303.53
2023-01-19T13:37:00.166Z,96307.59
2023-01-19T13:39:50.069Z,96302.97
2023-01-19T13:42:39.642Z,96306.19
2023-01-19T13:45:33.762Z,96307.81
2023-01-19T13:48:25.123Z,96311.03
2023-01-19T13:51:18.681Z,96312.84
2023-01-19T13:54:18.012Z,96309.56
2023-01-19T13:57:03.458Z,96313.59
2023-01-19T14:00:07.475Z,96317.19
2023-01-19T14:03:01.709Z,96313.38
2023-01-19T14:05:50.684Z,96328.59
2023-01-19T14:08:36.508Z,96319.94
2023-01-19T14:11:21.809Z,96316.13
2023-01-19T14:14:22.354Z,96319.13
2023-01-19T14:17:24.014Z,96316.69
2023-01-19T14:20:29.832Z,96322.88
2023-01-19T14:23:40.152Z,96323.91
2023-01-19T14:26:38.112Z,96324.28
2023-01-19T14:29:33.047Z,96324.47
2023-01-19T14:32:21.594Z,96315.81
2023-01-19T14:35:23.457Z,96326.44
2023-01-19T14:38:14.111Z,96326.66
2023-01-19T14:41:01.102Z,96323.06
2023-01-19T14:43:46.579Z,96325.81
2023-01-19T14:46:32.010Z,96325.03
2023-01-19T14:49:24.438Z,96319.03
2023-01-19T14:52:24.910Z,96328.63
2023-01-19T14:55:21.191Z,96325.22
2023-01-19T14:58:15.163Z,96327.84
2023-01-19T15:01:00.767Z,96333.22
2023-01-19T15:03:47.768Z,96328.38
2023-01-19T15:06:38.081Z,96323.19
2023-01-19T15:09:24.169Z,96324.59
2023-01-19T15:12:13.583Z,96325.38
2023-01-19T15:14:59.182Z,96325.78
2023-01-19T15:17:44.875Z,96324.16
2023-01-19T15:20:30.526Z,96325.97
2023-01-19T15:23:15.785Z,96325.00
2023-01-19T15:26:03.296Z,96320.94
2023-01-19T15:28:49.495Z,96323.72
2023-01-19T15:31:35.819Z,96327.34
2023-01-19T15:34:21.236Z,96325.91
2023-01-19T15:37:06.976Z,96331.31
2023-01-19T15:39:52.538Z,96333.28
2023-01-19T15:42:38.300Z,96330.88
2023-01-19T15:45:33.131Z,96339.69
2023-01-19T15:48:20.007Z,96335.47
2023-01-19T15:51:05.635Z,96341.66
2023-01-19T15:53:53.834Z,96339.88
2023-01-19T15:56:40.524Z,96340.88
2023-01-19T15:59:26.072Z,96344.47
2023-01-19T16:02:12.110Z,96347.91
2023-01-19T16:04:57.475Z,96354.91
2023-01-19T16:07:42.960Z,96358.50
2023-01-19T16:10:28.223Z,96354.28
2023-01-19T16:13:13.506Z,96357.91
2023-01-19T16:16:03.509Z,96365.72
2023-01-19T16:18:49.047Z,96364.09
2023-01-19T16:21:34.657Z,96361.50
2023-01-19T16:24:20.010Z,96366.91
2023-01-19T16:27:05.348Z,96369.50
2023-01-19T16:29:50.898Z,96372.09
2023-01-19T16:32:36.732Z,96381.72
2023-01-19T16:35:22.169Z,96382.53
2023-01-19T16:38:09.427Z,96390.16
2023-01-19T16:40:55.781Z,96379.72
2023-01-19T16:43:41.256Z,96382.97
2023-01-19T16:46:30.369Z,96384.94
2023-01-19T16:49:18.711Z,96379.72
2023-01-19T16:52:04.188Z,96381.34
2023-01-19T16:54:50.058Z,96383.97
2023-01-19T16:57:38.814Z,96382.16
2023-01-19T17:00:24.171Z,96389.31
2023-01-19T17:03:09.454Z,96387.56
2023-01-19T17:05:54.931Z,96389.97
2023-01-19T17:08:40.551Z,96389.97
2023-01-19T17:11:31.290Z,96386.72
2023-01-19T17:14:21.928Z,96384.94
2023-01-19T17:17:09.595Z,96388.53
2023-01-19T17:19:55.367Z,96382.53
2023-01-19T17:22:40.829Z,96388.53
2023-01-19T17:25:26.103Z,96384.50
2023-01-19T17:28:11.372Z,96392.50
2023-01-19T17:30:57.228Z,96393.50
2023-01-19T17:33:47.797Z,96388.47
2023-01-19T17:36:33.682Z,96385.25
2023-01-19T17:39:19.587Z,96393.59
2023-01-19T17:42:04.790Z,96398.56
2023-01-19T17:44:50.112Z,96395.53
2023-01-19T17:47:35.440Z,96397.50
2023-01-19T17:50:20.763Z,96407.31
2023-01-19T17:53:06.181Z,96400.66
2023-01-19T17:55:51.543Z,96403.44
2023-01-19T17:58:37.374Z,96403.44
2023-01-19T18:01:28.657Z,96404.63
2023-01-19T18:04:14.281Z,96415.84
2023-01-19T18:06:59.946Z,96415.03
2023-01-19T18:09:45.924Z,96417.63
2023-01-19T18:12:32.947Z,96414.41
2023-01-19T18:15:18.467Z,96418.81
2023-01-19T18:18:04.262Z,96425.00
2023-01-19T18:20:49.891Z,96423.38
2023-01-19T18:23:36.686Z,96426.19
2023-01-19T18:26:22.605Z,96426.19
2023-01-19T18:29:08.394Z,96426.19
2023-01-19T18:31:53.971Z,96426.19
2023-01-19T18:34:39.641Z,96428.44
2023-01-19T18:37:25.418Z,96431.03
2023-01-19T18:40:12.241Z,96427.63
2023-01-19T18:42:57.682Z,96432.63
2023-01-19T18:45:45.751Z,96431.84
2023-01-19T18:48:31.815Z,96431.03
2023-01-19T18:51:18.138Z,96427.44
2023-01-19T18:54:05.179Z,96427.44
2023-01-19T18:56:51.099Z,96429.03
2023-01-19T18:59:36.693Z,96433.28
2023-01-19T19:02:22.083Z,96432.28
2023-01-19T19:05:07.756Z,96439.13
2023-01-19T19:07:53.100Z,96437.50
2023-01-19T19:10:41.049Z,96436.66
2023-01-19T19:13:26.302Z,96442.69
2023-01-19T19:16:13.280Z,96441.88
2023-01-19T19:18:59.631Z,96446.28
2023-01-19T19:21:45.017Z,96439.47
2023-01-19T19:24:31.005Z,96434.44
2023-01-19T19:27:17.744Z,96431.84
2023-01-19T19:30:03.774Z,96438.66
2023-01-19T19:32:56.482Z,96446.28
2023-01-19T19:35:42.090Z,96446.09
2023-01-19T19:38:28.368Z,96440.75
2023-01-19T19:41:18.073Z,96440.34
2023-01-19T19:44:03.920Z,96445.56
2023-01-19T19:46:49.607Z,96439.56
2023-01-19T19:49:34.792Z,96443.94
2023-01-19T19:52:20.162Z,96447.53
2023-01-19T19:55:07.850Z,96452.94
2023-01-19T19:57:53.979Z,96450.31
2023-01-19T20:00:39.343Z,96454.75
2023-01-19T20:03:27.823Z,96449.53
2023-01-19T20:06:20.834Z,96450.53
2023-01-19T20:09:09.138Z,96449.88
2023-01-19T20:11:54.424Z,96455.81
2023-01-19T20:14:39.709Z,96453.59
2023-01-19T20:17:25.136Z,96455.91
2023-01-19T20:20:11.156Z,96457.25
2023-01-19T20:22:58.805Z,96464.00
2023-01-19T20:25:44.405Z,96471.34
2023-01-19T20:28:29.624Z,96469.75
2023-01-19T20:31:21.205Z,96468.31
2023-01-19T20:34:08.906Z,96467.06
2023-01-19T20:36:55.517Z,96463.19
2023-01-19T20:39:42.107Z,96457.72
2023-01-19T20:42:27.535Z,96462.28
2023-01-19T20:45:13.717Z,96459.25
2023-01-19T20:47:59.488Z,96458.78
2023-01-19T20:50:44.923Z,96464.19
2023-01-19T20:53:30.787Z,96459.94
2023-01-19T20:56:16.976Z,96459.94
2023-01-19T20:59:03.112Z,96464.19
2023-01-19T21:01:48.693Z,96455.19
2023-01-19T21:04:35.058Z,96459.25
2023-01-19T21:07:20.408Z,96465.69
2023-01-19T21:10:06.018Z,96456.91
2023-01-19T21:12:51.602Z,96461.75
2023-01-19T21:15:36.801Z,96464.00
2023-01-19T21:18:22.180Z,96469.00
2023-01-19T21:21:10.668Z,96459.78
2023-01-19T21:24:02.423Z,96462.56
2023-01-19T21:26:47.941Z,96447.78
2023-01-19T21:29:33.805Z,96446.31
2023-01-19T21:32:20.179Z,96448.44
2023-01-19T21:35:06.303Z,96450.63
2023-01-19T21:37:51.878Z,96456.00
2023-01-19T21:40:38.464Z,96455.66
2023-01-19T21:43:25.764Z,96461.31
2023-01-19T21:46:17.293Z,96465.16
2023-01-19T21:49:06.179Z,96467.41
2023-01-19T21:51:51.681Z,96473.44
2023-01-19T21:54:37.075Z,96468.22
2023-01-19T21:57:22.476Z,96472.44
2023-01-19T22:00:10.299Z,96469.47
2023-01-19T22:03:03.834Z,96466.06
2023-01-19T22:05:51.001Z,96466.41
2023-01-19T22:08:37.057Z,96468.22
2023-01-19T22:11:23.705Z,96462.03
2023-01-19T22:14:09.120Z,96460.06
2023-01-19T22:16:54.642Z,96451.25
2023-01-19T22:19:39.791Z,96450.25
2023-01-19T22:22:28.109Z,96454.66
2023-01-19T22:25:15.048Z,96446.22
2023-01-19T22:28:00.988Z,96454.56
2023-01-19T22:30:46.691Z,96455.13
2023-01-19T22:33:32.832Z,96455.66
2023-01-19T22:36:20.767Z,96454.38
2023-01-19T22:39:09.141Z,96455.72
2023-01-19T22:41:54.780Z,96462.09
2023-01-19T22:44:40.537Z,96454.81
2023-01-19T22:47:26.133Z,96462.63
2023-01-19T22:50:11.768Z,96458.59
2023-01-19T22:52:57.843Z,96460.38
2023-01-19T22:55:43.733Z,96459.56
2023-01-19T22:58:29.183Z,96464.59
2023-01-19T23:01:22.943Z,96467.03
2023-01-19T23:04:12.761Z,96466.06
2023-01-19T23:07:01.380Z,96459.22
2023-01-19T23:09:46.700Z,96461.81
2023-01-19T23:12:32.121Z,96459.38
2023-01-19T23:15:17.387Z,96466.22
2023-01-19T23:18:02.878Z,96467.38
2023-01-19T23:20:48.132Z,96469.78
2023-01-19T23:23:35.016Z,96476.81
2023-01-19T23:26:21.566Z,96481.22
2023-01-19T23:29:12.611Z,96475.19
2023-01-19T23:31:58.248Z,96473.41
2023-01-19T23:34:43.585Z,96472.38
2023-01-19T23:37:28.878Z,96479.41
2023-01-19T23:40:14.589Z,96483.81
2023-01-19T23:42:59.967Z,96494.22
2023-01-19T23:45:45.379Z,96495.00
2023-01-19T23:48:30.748Z,96506.22
2023-01-19T23:51:19.144Z,96505.59
2023-01-19T23:54:04.780Z,96506.41
2023-01-19T23:56:50.349Z,96498.78
2023-01-19T23:59:35.556Z,96496.81
